createdAt,value
2023-02-11T00:00:36.183Z,43.17
2023-02-11T00:03:05.419Z,43.60
2023-02-11T00:05:33.292Z,42.65
2023-02-11T00:08:01.163Z,45.17
2023-02-11T00:10:29.043Z,46.97
2023-02-11T00:12:57.067Z,53.55
2023-02-11T00:15:25.015Z,52.38
2023-02-11T00:17:52.870Z,51.72
2023-02-11T00:20:22.185Z,54.63
2023-02-11T16:21:31.570Z,15.05
2023-02-11T16:24:00.006Z,16.73
2023-02-11T16:26:32.714Z,18.55
2023-02-11T16:29:06.315Z,16.40
2023-02-11T16:31:36.047Z,16.25
2023-02-11T16:34:03.959Z,16.77
2023-02-11T16:36:33.227Z,14.82
2023-02-11T16:39:01.098Z,17.67
2023-02-11T16:41:28.997Z,20.50
2023-02-11T16:43:58.876Z,19.20
2023-02-11T16:46:27.454Z,17.00
2023-02-11T16:48:56.462Z,16.17
2023-02-11T16:51:24.418Z,18.00
2023-02-11T16:53:53.672Z,18.10
2023-02-11T16:56:21.626Z,23.60
2023-02-11T16:58:49.513Z,30.95
2023-02-11T17:01:17.521Z,28.35
2023-02-11T17:03:45.585Z,33.08
2023-02-11T17:06:14.729Z,24.83
2023-02-11T17:08:43.026Z,23.95
2023-02-11T17:11:16.635Z,26.38
2023-02-11T17:13:44.720Z,27.00
2023-02-11T17:16:18.126Z,29.10
2023-02-11T17:18:46.499Z,34.38
2023-02-11T17:21:14.630Z,38.90
2023-02-11T17:23:42.702Z,32.65
2023-02-11T17:26:12.099Z,38.25
2023-02-11T17:28:40.084Z,36.55
2023-02-11T17:31:09.558Z,38.50
2023-02-11T17:33:38.844Z,36.85
2023-02-11T17:36:10.667Z,39.20
2023-02-11T17:38:39.172Z,41.47
2023-02-11T17:41:07.338Z,42.13
2023-02-11T17:43:36.592Z,39.30
2023-02-11T17:46:08.232Z,40.75
2023-02-11T17:48:37.660Z,41.33
2023-02-11T17:51:05.993Z,44.83
2023-02-11T17:53:33.823Z,41.35
2023-02-11T17:56:06.252Z,46.33
2023-02-11T17:58:34.194Z,47.33
2023-02-11T18:01:03.443Z,45.85
2023-02-11T18:03:31.391Z,46.28
2023-02-11T18:06:01.407Z,48.30
2023-02-11T18:08:29.314Z,44.22
2023-02-11T18:10:57.211Z,46.65
2023-02-11T18:13:25.126Z,45.03
2023-02-11T18:15:53.339Z,44.90
2023-02-11T18:18:22.753Z,41.38
2023-02-11T18:20:57.675Z,41.88
2023-02-11T18:25:53.632Z,41.30
2023-02-11T18:28:21.693Z,41.03
2023-02-11T18:30:49.623Z,43.83
2023-02-11T18:33:17.501Z,42.83
2023-02-11T18:35:49.019Z,44.63
2023-02-11T18:38:18.542Z,42.65
2023-02-11T18:40:47.436Z,39.45
2023-02-11T18:43:15.418Z,41.63
2023-02-11T18:45:44.537Z,43.40
2023-02-11T18:48:12.761Z,42.92
2023-02-11T18:50:41.533Z,45.90
2023-02-11T18:53:11.466Z,46.35
2023-02-11T18:55:39.934Z,45.65
2023-02-11T18:58:08.014Z,45.40
2023-02-11T19:00:36.434Z,50.65
2023-02-11T19:03:04.390Z,56.80
2023-02-11T19:05:33.409Z,52.72
2023-02-11T19:08:02.067Z,53.70
2023-02-11T19:10:31.306Z,53.40
2023-02-11T19:12:59.619Z,57.22
2023-02-11T19:15:28.012Z,57.05
2023-02-11T19:17:56.012Z,54.80
2023-02-11T19:20:23.877Z,57.70
2023-02-11T19:22:51.975Z,61.53
2023-02-11T19:25:19.901Z,58.30
2023-02-11T19:27:49.123Z,58.85
2023-02-11T19:30:17.102Z,58.10
2023-02-11T19:32:44.961Z,55.53
2023-02-11T19:35:12.896Z,57.03
2023-02-11T19:37:41.293Z,56.78
2023-02-11T19:40:10.195Z,57.05
2023-02-11T19:42:38.047Z,51.85
2023-02-11T19:45:08.069Z,54.47
2023-02-11T19:47:36.303Z,57.50
2023-02-11T19:50:05.365Z,58.97
2023-02-11T19:52:33.624Z,58.35
2023-02-11T19:55:01.610Z,62.35
2023-02-11T19:57:29.434Z,59.45
2023-02-11T19:59:57.309Z,59.47
2023-02-11T20:02:26.701Z,58.30
2023-02-11T20:04:54.699Z,56.90
2023-02-11T20:07:22.559Z,59.08
2023-02-11T20:09:50.430Z,58.42
2023-02-11T20:12:18.329Z,56.85
2023-02-11T20:14:46.290Z,60.08
2023-02-11T20:17:14.189Z,58.20
2023-02-11T20:19:43.394Z,55.47
2023-02-11T20:22:12.853Z,57.00
2023-02-11T20:24:40.989Z,57.90
2023-02-11T20:27:11.351Z,58.60
2023-02-11T20:29:39.426Z,58.60
2023-02-11T20:32:08.396Z,57.50
2023-02-11T20:34:36.375Z,57.05
2023-02-11T20:37:06.610Z,59.55
2023-02-11T20:39:35.392Z,62.70
2023-02-11T20:42:03.262Z,64.07
2023-02-11T20:44:31.121Z,63.28
2023-02-11T20:46:58.989Z,60.22
2023-02-11T20:49:28.278Z,61.40
2023-02-11T20:51:58.246Z,65.97
2023-02-11T20:54:27.973Z,63.20
2023-02-11T20:56:56.912Z,65.40
2023-02-11T20:59:25.621Z,63.63
2023-02-11T21:01:56.341Z,67.18
2023-02-11T21:04:26.692Z,67.43
2023-02-11T21:06:56.317Z,71.63
2023-02-11T21:09:26.020Z,71.72
2023-02-11T21:11:55.951Z,69.90
2023-02-11T21:14:25.266Z,71.20
2023-02-11T21:16:53.504Z,72.10
2023-02-11T21:19:21.539Z,70.05
2023-02-11T21:21:49.509Z,73.88
2023-02-11T21:24:17.403Z,71.53
2023-02-11T21:26:45.311Z,70.82
2023-02-11T21:29:14.615Z,69.65
2023-02-11T21:31:42.850Z,70.97
2023-02-11T21:34:11.690Z,70.43
2023-02-11T21:36:39.817Z,70.32
2023-02-11T21:39:08.788Z,69.55
2023-02-11T21:41:36.646Z,71.35
2023-02-11T21:44:04.480Z,68.80
2023-02-11T21:46:33.801Z,68.38
2023-02-11T21:49:01.712Z,70.45
2023-02-11T21:51:29.642Z,72.70
2023-02-11T21:53:59.212Z,71.00
2023-02-11T21:56:27.983Z,72.25
2023-02-11T21:58:58.148Z,73.20
2023-02-11T22:01:27.857Z,72.22
2023-02-11T22:03:57.259Z,77.20
2023-02-11T22:06:27.155Z,76.10
2023-02-11T22:08:56.102Z,70.57
2023-02-11T22:11:24.777Z,72.22
2023-02-11T22:13:56.152Z,74.60
2023-02-11T22:16:24.587Z,75.00
2023-02-11T22:18:52.503Z,71.25
2023-02-11T22:21:23.275Z,73.28
2023-02-11T22:23:52.066Z,72.05
2023-02-11T22:26:22.213Z,72.75
2023-02-11T22:28:50.677Z,73.95
2023-02-11T22:31:21.065Z,74.25
2023-02-11T22:33:49.794Z,68.55
2023-02-11T22:36:19.655Z,64.95
2023-02-11T22:38:49.567Z,54.95
2023-02-11T22:41:18.597Z,51.75
2023-02-11T22:43:46.912Z,51.17
2023-02-11T22:46:17.133Z,49.38
2023-02-11T22:48:45.074Z,46.80
2023-02-11T22:51:14.515Z,44.70
2023-02-11T22:53:43.560Z,43.10
2023-02-11T22:56:15.856Z,41.78
2023-02-11T22:58:44.141Z,39.22
2023-02-11T23:01:12.605Z,39.53
2023-02-11T23:03:41.449Z,38.55
2023-02-11T23:06:09.884Z,36.83
2023-02-11T23:08:39.673Z,36.38
2023-02-11T23:11:09.733Z,33.50
2023-02-11T23:13:41.534Z,32.85
2023-02-11T23:16:11.697Z,33.45
2023-02-11T23:18:42.274Z,30.92
2023-02-11T23:21:12.939Z,31.88
2023-02-11T23:23:41.230Z,30.17
2023-02-11T23:26:11.383Z,30.00
2023-02-11T23:28:40.952Z,28.40
2023-02-11T23:31:17.052Z,28.20
2023-02-11T23:33:45.372Z,27.48
2023-02-11T23:36:14.098Z,28.10
2023-02-11T23:38:42.140Z,27.15
2023-02-11T23:41:10.080Z,27.88
2023-02-11T23:43:38.236Z,28.02
2023-02-11T23:46:08.296Z,28.73
2023-02-11T23:48:37.702Z,29.25
2023-02-11T23:51:06.419Z,28.17
2023-02-11T23:53:34.278Z,29.48
2023-02-11T23:56:02.145Z,28.25
2023-02-11T23:58:30.360Z,27.70
